createdAt,value
2019-03-13T00:00:42.259Z,11.83
2019-03-13T00:03:14.209Z,12.03
2019-03-13T00:05:47.489Z,17.47
2019-03-13T00:08:19.991Z,13.53
2019-03-13T00:10:51.591Z,15.70
2019-03-13T00:13:24.771Z,11.00
2019-03-13T00:15:56.377Z,10.50
2019-03-13T00:18:27.791Z,12.03
2019-03-13T00:21:00.284Z,11.50
2019-03-13T00:23:31.888Z,12.50
2019-03-13T00:26:03.427Z,12.43
2019-03-13T00:28:34.914Z,10.00
2019-03-13T00:31:06.435Z,13.97
2019-03-13T00:33:37.964Z,12.07
2019-03-13T00:36:09.605Z,10.83
2019-03-13T00:38:41.051Z,13.00
2019-03-13T00:41:12.616Z,9.93
2019-03-13T00:43:44.120Z,9.30
2019-03-13T00:46:15.673Z,15.67
2019-03-13T00:48:47.126Z,11.97
2019-03-13T00:51:18.777Z,10.10
2019-03-13T00:53:50.352Z,10.17
2019-03-13T00:56:21.862Z,9.80
2019-03-13T00:58:53.389Z,9.93
2019-03-13T01:01:40.409Z,10.37
2019-03-13T01:04:34.063Z,11.37
2019-03-13T01:07:09.124Z,8.67
2019-03-13T01:09:47.276Z,11.53
2019-03-13T01:12:18.780Z,10.63
2019-03-13T01:14:51.837Z,10.17
2019-03-13T01:17:23.374Z,11.10
2019-03-13T01:19:54.922Z,9.10
2019-03-13T01:22:27.292Z,8.13
2019-03-13T01:24:58.757Z,9.80
2019-03-13T01:27:31.800Z,7.97
2019-03-13T01:30:03.387Z,10.13
2019-03-13T01:32:46.809Z,8.73
2019-03-13T01:35:24.532Z,10.50
2019-03-13T01:37:56.030Z,9.73
2019-03-13T01:40:27.455Z,9.43
2019-03-13T01:42:58.937Z,10.90
2019-03-13T01:45:30.484Z,9.13
2019-03-13T01:48:01.997Z,10.33
2019-03-13T01:50:34.746Z,10.73
2019-03-13T01:53:06.685Z,7.63
2019-03-13T01:55:38.194Z,8.00
2019-03-13T01:58:09.714Z,9.73
2019-03-13T02:00:41.312Z,9.93
2019-03-13T02:03:12.804Z,7.67
2019-03-13T02:05:44.762Z,9.93
2019-03-13T02:08:16.384Z,10.63
2019-03-13T02:10:47.787Z,7.47
2019-03-13T02:13:20.560Z,9.47
2019-03-13T02:15:52.185Z,9.57
2019-03-13T02:18:24.981Z,6.30
2019-03-13T02:20:56.697Z,10.37
2019-03-13T02:23:28.351Z,10.50
2019-03-13T02:25:59.948Z,7.67
2019-03-13T02:28:31.548Z,9.37
2019-03-13T02:31:03.198Z,6.83
2019-03-13T02:33:34.649Z,8.47
2019-03-13T02:36:06.397Z,8.13
2019-03-13T02:38:38.021Z,7.13
2019-03-13T02:41:09.689Z,6.07
2019-03-13T02:43:41.217Z,7.87
2019-03-13T02:46:12.740Z,8.07
2019-03-13T02:48:44.251Z,7.30
2019-03-13T02:51:15.823Z,8.33
2019-03-13T02:53:47.221Z,12.83
2019-03-13T02:56:18.754Z,7.93
2019-03-13T02:58:50.284Z,6.50
2019-03-13T03:01:26.153Z,8.47
2019-03-13T03:03:59.356Z,6.40
2019-03-13T03:06:32.566Z,10.63
2019-03-13T03:09:06.765Z,7.87
2019-03-13T03:11:39.877Z,9.53
2019-03-13T03:14:11.411Z,9.77
2019-03-13T03:16:43.050Z,6.40
2019-03-13T03:19:14.613Z,6.90
2019-03-13T03:21:46.134Z,9.30
2019-03-13T03:24:21.872Z,7.67
2019-03-13T03:26:53.436Z,7.53
2019-03-13T03:29:24.859Z,7.67
2019-03-13T03:31:56.442Z,10.67
2019-03-13T03:34:31.685Z,7.97
2019-03-13T03:37:03.204Z,8.43
2019-03-13T03:39:34.660Z,11.97
2019-03-13T03:42:06.443Z,7.53
2019-03-13T03:44:37.871Z,6.33
2019-03-13T03:47:10.915Z,6.70
2019-03-13T03:49:42.350Z,7.53
2019-03-13T03:52:13.959Z,8.30
2019-03-13T03:54:45.465Z,7.87
2019-03-13T03:57:16.950Z,7.77
2019-03-13T03:59:48.375Z,8.90
2019-03-13T04:02:19.916Z,7.70
2019-03-13T04:04:51.435Z,7.17
2019-03-13T04:07:23.141Z,6.63
2019-03-13T04:09:55.668Z,6.77
2019-03-13T04:12:27.178Z,7.47
2019-03-13T04:14:58.608Z,7.03
2019-03-13T04:17:30.006Z,6.07
2019-03-13T04:20:01.499Z,9.37
2019-03-13T04:22:33.049Z,9.10
2019-03-13T04:25:45.844Z,7.97
2019-03-13T04:28:17.305Z,7.87
2019-03-13T04:30:48.826Z,6.20
2019-03-13T04:33:28.084Z,6.03
2019-03-13T04:35:58.003Z,5.47
2019-03-13T04:38:29.400Z,8.13
2019-03-13T04:41:00.967Z,5.27
2019-03-13T04:43:32.592Z,5.67
2019-03-13T04:46:04.086Z,5.40
2019-03-13T04:48:35.630Z,8.43
2019-03-13T04:51:07.177Z,8.77
2019-03-13T04:53:38.665Z,8.53
2019-03-13T04:56:10.091Z,6.13
2019-03-13T04:58:41.744Z,5.50
2019-03-13T05:01:13.371Z,5.83
2019-03-13T05:03:44.854Z,4.73
2019-03-13T05:06:20.242Z,5.87
2019-03-13T05:09:18.349Z,5.90
2019-03-13T05:11:49.803Z,7.70
2019-03-13T05:14:21.402Z,6.77
2019-03-13T05:16:52.879Z,4.43
2019-03-13T05:19:24.339Z,3.90
2019-03-13T05:22:01.612Z,3.37
2019-03-13T05:24:33.138Z,6.03
2019-03-13T05:27:05.681Z,4.80
2019-03-13T05:29:37.328Z,4.57
2019-03-13T05:32:08.866Z,5.63
2019-03-13T05:34:40.460Z,6.13
2019-03-13T05:37:11.988Z,5.93
2019-03-13T05:39:43.575Z,3.53
2019-03-13T05:42:15.095Z,4.00
2019-03-13T05:44:46.692Z,7.33
2019-03-13T05:47:18.127Z,4.93
2019-03-13T05:49:49.763Z,8.63
2019-03-13T05:52:21.357Z,5.20
2019-03-13T05:54:56.089Z,3.67
2019-03-13T05:57:29.662Z,3.77
2019-03-13T06:00:02.391Z,2.47
2019-03-13T06:02:33.910Z,3.80
2019-03-13T06:05:05.789Z,5.00
2019-03-13T06:07:37.447Z,5.93
2019-03-13T06:10:09.000Z,4.07
2019-03-13T06:12:40.667Z,7.13
2019-03-13T06:15:12.367Z,5.53
2019-03-13T06:17:43.889Z,7.03
2019-03-13T06:20:15.867Z,4.73
2019-03-13T06:22:47.371Z,4.57
2019-03-13T06:25:19.000Z,4.13
2019-03-13T06:27:50.498Z,5.13
2019-03-13T06:30:22.278Z,6.10
2019-03-13T06:32:53.769Z,4.57
2019-03-13T06:35:25.313Z,5.07
2019-03-13T06:37:56.776Z,5.90
2019-03-13T06:40:30.127Z,6.47
2019-03-13T06:43:02.308Z,6.97
2019-03-13T06:45:33.922Z,6.93
2019-03-13T06:48:05.362Z,8.27
2019-03-13T06:50:36.807Z,5.20
2019-03-13T06:53:08.263Z,6.73
2019-03-13T06:55:39.714Z,6.23
2019-03-13T06:58:11.274Z,7.60
2019-03-13T07:01:10.934Z,3.80
2019-03-13T07:03:58.779Z,6.17
2019-03-13T07:06:47.721Z,3.57
2019-03-13T07:09:44.176Z,4.63
2019-03-13T07:12:43.900Z,5.03
2019-03-13T07:15:35.754Z,7.90
2019-03-13T07:18:12.267Z,5.63
2019-03-13T07:21:05.551Z,4.57
2019-03-13T07:23:54.249Z,6.47
2019-03-13T07:26:44.705Z,5.07
2019-03-13T07:29:31.575Z,4.73
2019-03-13T07:32:24.546Z,4.77
2019-03-13T07:35:15.773Z,3.87
2019-03-13T07:38:07.017Z,4.87
2019-03-13T07:41:03.414Z,8.37
2019-03-13T07:43:56.818Z,5.90
2019-03-13T07:46:50.242Z,5.57
2019-03-13T07:49:40.811Z,9.90
2019-03-13T07:52:32.701Z,8.90
2019-03-13T07:55:11.976Z,8.17
2019-03-13T07:58:08.187Z,9.90
2019-03-13T08:00:52.627Z,6.60
2019-03-13T08:03:35.174Z,8.73
2019-03-13T08:06:24.331Z,10.57
2019-03-13T08:09:06.264Z,8.53
2019-03-13T08:11:53.943Z,7.43
2019-03-13T08:14:35.428Z,7.70
2019-03-13T08:17:31.016Z,7.27
2019-03-13T08:20:21.523Z,6.83
2019-03-13T08:23:27.381Z,6.60
2019-03-13T08:26:16.304Z,9.93
2019-03-13T08:28:56.435Z,7.53
2019-03-13T08:31:43.299Z,7.77
2019-03-13T08:34:33.714Z,8.47
2019-03-13T08:37:24.077Z,6.97
2019-03-13T08:40:11.124Z,7.50
2019-03-13T08:43:01.561Z,6.80
2019-03-13T08:45:56.783Z,6.50
2019-03-13T08:48:37.427Z,7.37
2019-03-13T08:51:31.600Z,4.13
2019-03-13T08:54:18.135Z,3.93
2019-03-13T08:57:04.508Z,4.80
2019-03-13T08:59:53.811Z,2.70
2019-03-13T09:02:34.553Z,3.53
2019-03-13T09:05:28.181Z,2.23
2019-03-13T09:08:14.187Z,3.17
2019-03-13T09:11:22.762Z,4.13
2019-03-13T09:14:13.268Z,3.30
2019-03-13T09:17:07.205Z,2.90
2019-03-13T09:20:00.695Z,4.60
2019-03-13T09:22:42.428Z,3.77
2019-03-13T09:25:48.119Z,2.90
2019-03-13T09:28:40.265Z,2.87
2019-03-13T09:31:25.638Z,3.17
2019-03-13T09:34:07.606Z,3.10
2019-03-13T09:37:01.069Z,5.07
2019-03-13T09:39:50.214Z,3.90
2019-03-13T09:42:27.608Z,4.73
2019-03-13T09:45:14.072Z,6.30
2019-03-13T09:48:07.406Z,3.53
2019-03-13T09:50:43.363Z,3.13
2019-03-13T09:53:29.037Z,4.27
2019-03-13T09:56:31.691Z,6.47
2019-03-13T09:59:43.659Z,4.10
2019-03-13T10:02:37.248Z,3.73
2019-03-13T10:05:30.728Z,3.03
2019-03-13T10:08:19.363Z,1.87
2019-03-13T10:11:01.677Z,6.90
2019-03-13T10:13:49.782Z,4.07
2019-03-13T10:16:40.008Z,4.50
2019-03-13T10:19:30.510Z,4.13
2019-03-13T10:22:14.287Z,4.13
2019-03-13T10:25:14.334Z,3.90
2019-03-13T10:28:00.855Z,2.23
2019-03-13T10:30:56.559Z,3.47
2019-03-13T10:33:42.023Z,5.40
2019-03-13T10:36:31.060Z,3.30
2019-03-13T10:39:14.004Z,2.70
2019-03-13T10:41:58.722Z,2.67
2019-03-13T10:44:48.028Z,4.03
2019-03-13T10:47:30.595Z,1.73
2019-03-13T10:50:27.418Z,5.77
2019-03-13T10:53:17.823Z,3.27
2019-03-13T10:56:10.995Z,2.30
2019-03-13T10:59:00.118Z,4.73
2019-03-13T11:01:56.403Z,4.77
2019-03-13T11:04:45.443Z,3.83
2019-03-13T11:07:29.051Z,3.93
2019-03-13T11:10:25.606Z,3.23
2019-03-13T11:13:15.995Z,1.60
2019-03-13T11:16:15.532Z,1.83
2019-03-13T11:18:59.279Z,6.03
2019-03-13T11:21:40.883Z,6.33
2019-03-13T11:24:26.996Z,4.20
2019-03-13T11:27:24.768Z,2.97
2019-03-13T11:30:15.155Z,3.43
2019-03-13T11:33:08.615Z,5.73
2019-03-13T11:35:57.835Z,2.57
2019-03-13T11:38:46.868Z,2.83
2019-03-13T11:41:37.351Z,3.13
2019-03-13T11:44:25.656Z,4.00
2019-03-13T11:47:11.699Z,4.97
2019-03-13T11:50:02.163Z,4.10
2019-03-13T11:52:58.083Z,3.37
2019-03-13T11:55:40.627Z,4.07
2019-03-13T11:58:40.256Z,4.83
2019-03-13T12:01:29.010Z,5.93
2019-03-13T12:04:31.237Z,3.90
2019-03-13T12:07:21.172Z,2.43
2019-03-13T12:10:01.135Z,2.70
2019-03-13T12:12:54.454Z,3.97
2019-03-13T12:15:54.200Z,3.33
2019-03-13T12:18:45.499Z,2.13
2019-03-13T12:21:25.995Z,4.37
2019-03-13T12:24:30.935Z,1.97
2019-03-13T12:27:37.762Z,2.13
2019-03-13T12:30:39.001Z,3.90
2019-03-13T12:33:17.878Z,3.50
2019-03-13T12:36:26.507Z,2.93
2019-03-13T12:39:25.783Z,4.87
2019-03-13T12:42:28.080Z,2.57
2019-03-13T12:45:08.225Z,2.23
2019-03-13T12:48:16.147Z,2.30
2019-03-13T12:50:49.729Z,2.87
2019-03-13T12:53:31.227Z,2.07
2019-03-13T12:56:24.559Z,3.87
2019-03-13T12:59:12.391Z,2.47
2019-03-13T13:02:01.193Z,2.50
2019-03-13T13:05:03.415Z,5.53
2019-03-13T13:08:00.481Z,2.63
2019-03-13T13:11:10.651Z,3.87
2019-03-13T13:14:15.148Z,3.70
2019-03-13T13:17:12.005Z,1.50
2019-03-13T13:19:43.441Z,4.20
2019-03-13T13:22:15.047Z,3.73
2019-03-13T13:24:46.795Z,2.80
2019-03-13T13:27:18.272Z,3.77
2019-03-13T13:29:49.693Z,2.77
2019-03-13T13:32:21.183Z,2.70
2019-03-13T13:34:55.504Z,3.90
2019-03-13T13:37:30.146Z,5.10
2019-03-13T13:40:01.695Z,3.57
2019-03-13T13:42:33.238Z,2.07
2019-03-13T13:45:05.160Z,4.83
2019-03-13T13:47:39.596Z,1.87
2019-03-13T13:50:14.523Z,2.87
2019-03-13T13:52:46.045Z,2.50
2019-03-13T13:55:17.491Z,2.00
2019-03-13T13:57:49.090Z,6.33
2019-03-13T14:00:20.523Z,3.20
2019-03-13T14:02:52.230Z,2.67
2019-03-13T14:05:23.713Z,3.37
2019-03-13T14:07:55.206Z,4.27
2019-03-13T14:10:26.620Z,3.77
2019-03-13T14:12:58.119Z,2.80
2019-03-13T14:15:29.561Z,2.90
2019-03-13T14:18:02.609Z,3.27
2019-03-13T14:20:35.145Z,4.47
2019-03-13T14:23:06.735Z,2.83
2019-03-13T14:25:38.203Z,3.70
2019-03-13T14:28:09.652Z,4.23
2019-03-13T14:30:41.121Z,5.57
2019-03-13T14:33:12.602Z,4.70
2019-03-13T14:35:46.379Z,2.37
2019-03-13T14:38:17.139Z,6.07
2019-03-13T14:40:48.633Z,6.63
2019-03-13T14:43:20.135Z,5.90
2019-03-13T14:45:51.741Z,9.23
2019-03-13T14:48:23.258Z,4.43
2019-03-13T14:50:54.793Z,4.03
2019-03-13T14:53:26.279Z,4.73
2019-03-13T14:55:57.706Z,4.73
2019-03-13T14:58:29.217Z,2.70
2019-03-13T15:01:00.692Z,2.87
2019-03-13T15:03:32.615Z,6.47
2019-03-13T15:06:06.275Z,3.60
2019-03-13T15:08:37.819Z,4.87
2019-03-13T15:11:09.453Z,4.27
2019-03-13T15:13:40.963Z,5.53
2019-03-13T15:16:12.409Z,3.70
2019-03-13T15:18:46.559Z,3.03
2019-03-13T15:21:18.123Z,3.70
2019-03-13T15:23:49.683Z,4.03
2019-03-13T15:26:21.183Z,4.77
2019-03-13T15:28:52.715Z,5.70
2019-03-13T15:31:25.141Z,4.63
2019-03-13T15:33:56.656Z,5.47
2019-03-13T15:36:28.138Z,5.90
2019-03-13T15:38:59.677Z,7.80
2019-03-13T15:41:32.819Z,6.13
2019-03-13T15:44:05.573Z,5.27
2019-03-13T15:46:37.212Z,6.67
2019-03-13T15:49:08.644Z,5.17
2019-03-13T15:51:40.213Z,3.07
2019-03-13T15:54:11.635Z,5.13
2019-03-13T15:56:46.681Z,2.10
2019-03-13T15:59:18.217Z,3.53
2019-03-13T16:01:49.712Z,3.67
2019-03-13T16:04:21.214Z,6.07
2019-03-13T16:06:52.824Z,2.83
2019-03-13T16:09:24.421Z,3.60
2019-03-13T16:11:55.878Z,5.10
2019-03-13T16:14:27.359Z,4.80
2019-03-13T16:16:58.795Z,6.77
2019-03-13T16:19:30.308Z,6.37
2019-03-13T16:22:02.541Z,8.47
2019-03-13T16:24:34.155Z,6.50
2019-03-13T16:27:05.634Z,7.90
2019-03-13T16:29:37.282Z,6.87
2019-03-13T16:32:09.318Z,8.43
2019-03-13T16:34:40.786Z,8.57
2019-03-13T16:37:12.308Z,7.90
2019-03-13T16:39:43.930Z,10.43
2019-03-13T16:42:15.527Z,8.10
2019-03-13T16:44:47.004Z,7.73
2019-03-13T16:47:18.566Z,9.43
2019-03-13T16:49:51.682Z,6.30
2019-03-13T16:52:24.242Z,7.77
2019-03-13T16:54:58.298Z,6.40
2019-03-13T16:57:28.980Z,6.07
2019-03-13T17:00:01.805Z,7.23
2019-03-13T17:02:35.091Z,6.67
2019-03-13T17:05:07.144Z,8.90
2019-03-13T17:07:38.830Z,7.33
2019-03-13T17:10:11.970Z,11.37
2019-03-13T17:12:44.548Z,8.50
2019-03-13T17:15:18.085Z,9.80
2019-03-13T17:17:49.861Z,11.00
2019-03-13T17:20:26.021Z,11.87
2019-03-13T17:22:56.651Z,15.83
2019-03-13T17:25:28.117Z,15.10
2019-03-13T17:27:59.647Z,16.70
2019-03-13T17:30:32.886Z,16.97
2019-03-13T17:33:06.952Z,18.17
2019-03-13T17:35:40.095Z,15.60
2019-03-13T17:38:11.656Z,17.43
2019-03-13T17:40:43.151Z,16.07
2019-03-13T17:43:14.750Z,19.13
2019-03-13T17:45:46.240Z,22.27
2019-03-13T17:48:17.738Z,21.67
2019-03-13T17:50:51.356Z,24.00
2019-03-13T17:53:23.048Z,20.07
2019-03-13T17:55:54.753Z,22.33
2019-03-13T17:58:26.447Z,26.13
2019-03-13T18:00:57.996Z,24.13
2019-03-13T18:03:29.917Z,22.07
2019-03-13T18:06:01.456Z,28.37
2019-03-13T18:08:33.100Z,19.47
2019-03-13T18:11:09.231Z,16.47
2019-03-13T18:13:40.726Z,12.97
2019-03-13T18:16:12.196Z,16.77
2019-03-13T18:18:43.832Z,12.27
2019-03-13T18:21:15.428Z,11.30
2019-03-13T18:23:46.968Z,10.23
2019-03-13T18:26:18.512Z,10.97
2019-03-13T18:28:50.000Z,10.57
2019-03-13T18:31:21.536Z,9.80
2019-03-13T18:33:53.012Z,9.20
2019-03-13T18:36:24.570Z,10.40
2019-03-13T18:38:56.277Z,14.30
2019-03-13T18:41:27.758Z,15.37
2019-03-13T18:43:59.854Z,12.80
2019-03-13T18:46:31.572Z,16.50
2019-03-13T18:49:03.292Z,17.07
2019-03-13T18:51:34.806Z,18.23
2019-03-13T18:54:06.538Z,15.27
2019-03-13T18:56:41.314Z,15.00
2019-03-13T18:59:13.031Z,16.40
2019-03-13T19:01:44.538Z,16.80
2019-03-13T19:04:16.226Z,15.17
2019-03-13T19:06:49.539Z,15.90
2019-03-13T19:09:21.042Z,15.20
2019-03-13T19:11:52.945Z,15.80
2019-03-13T19:14:24.326Z,15.70
2019-03-13T19:16:56.190Z,16.77
2019-03-13T19:19:27.784Z,13.97
2019-03-13T19:21:59.430Z,17.37
2019-03-13T19:24:31.839Z,15.43
2019-03-13T19:27:08.850Z,16.40
2019-03-13T19:29:40.672Z,17.70
2019-03-13T19:32:12.129Z,16.43
2019-03-13T19:34:43.649Z,16.90
2019-03-13T19:37:15.941Z,14.53
2019-03-13T19:39:47.519Z,18.23
2019-03-13T19:42:19.300Z,11.47
2019-03-13T19:44:50.858Z,14.77
2019-03-13T19:47:22.548Z,13.57
2019-03-13T19:49:54.427Z,15.23
2019-03-13T19:52:27.126Z,11.37
2019-03-13T19:54:58.641Z,10.77
2019-03-13T19:57:30.136Z,11.20
2019-03-13T20:00:01.742Z,11.73
2019-03-13T20:02:34.851Z,11.77
2019-03-13T20:05:06.673Z,13.93
2019-03-13T20:07:39.314Z,13.20
2019-03-13T20:10:16.626Z,13.23
2019-03-13T20:12:48.218Z,11.47
2019-03-13T20:15:20.763Z,10.67
2019-03-13T20:17:52.312Z,9.43
2019-03-13T20:20:28.069Z,11.30
2019-03-13T20:23:00.418Z,11.83
2019-03-13T20:25:35.519Z,15.10
2019-03-13T20:28:07.042Z,15.40
2019-03-13T20:30:38.635Z,10.00
2019-03-13T20:33:10.308Z,10.87
2019-03-13T20:35:47.023Z,10.37
2019-03-13T20:38:18.757Z,13.00
2019-03-13T20:40:50.297Z,10.17
2019-03-13T20:43:21.930Z,11.57
2019-03-13T20:45:53.472Z,12.43
2019-03-13T20:48:25.070Z,9.37
2019-03-13T20:50:56.618Z,10.87
2019-03-13T20:53:28.096Z,10.90
2019-03-13T20:55:59.583Z,10.50
2019-03-13T20:58:31.525Z,11.80
2019-03-13T21:01:03.859Z,10.50
2019-03-13T21:03:35.883Z,11.70
2019-03-13T21:06:07.439Z,11.53
2019-03-13T21:08:39.112Z,10.50
2019-03-13T21:11:10.590Z,10.13
2019-03-13T21:13:42.124Z,13.03
2019-03-13T21:16:14.119Z,10.70
2019-03-13T21:18:45.672Z,11.67
2019-03-13T21:21:17.201Z,11.53
2019-03-13T21:23:48.723Z,13.57
2019-03-13T21:26:22.341Z,10.97
2019-03-13T21:28:53.832Z,11.77
2019-03-13T21:31:25.444Z,11.00
2019-03-13T21:33:57.519Z,8.97
2019-03-13T21:36:29.097Z,11.00
2019-03-13T21:39:01.694Z,11.23
2019-03-13T21:41:35.675Z,8.63
2019-03-13T21:44:12.752Z,8.67
2019-03-13T21:46:46.308Z,13.83
2019-03-13T21:49:17.771Z,9.73
2019-03-13T21:51:49.274Z,8.53
2019-03-13T21:54:20.811Z,9.93
2019-03-13T21:56:52.411Z,6.73
2019-03-13T21:59:24.052Z,7.57
2019-03-13T22:01:55.507Z,6.07
2019-03-13T22:04:27.095Z,8.20
2019-03-13T22:06:58.619Z,7.40
2019-03-13T22:09:30.225Z,5.63
2019-03-13T22:12:01.841Z,7.83
2019-03-13T22:14:33.500Z,9.90
2019-03-13T22:17:05.023Z,7.70
2019-03-13T22:19:36.557Z,7.73
2019-03-13T22:22:08.115Z,8.10
2019-03-13T22:24:39.624Z,7.00
2019-03-13T22:27:11.103Z,6.30
2019-03-13T22:29:42.652Z,7.93
2019-03-13T22:32:14.265Z,6.07
2019-03-13T22:34:45.806Z,7.67
2019-03-13T22:37:17.371Z,5.63
2019-03-13T22:39:48.919Z,6.17
2019-03-13T22:42:20.479Z,8.37
2019-03-13T22:44:52.022Z,6.90
2019-03-13T22:47:23.525Z,6.40
2019-03-13T22:49:55.092Z,8.33
2019-03-13T22:52:26.652Z,4.30
2019-03-13T22:54:59.154Z,4.73
2019-03-13T22:57:30.598Z,4.93
2019-03-13T23:00:02.105Z,4.33
2019-03-13T23:02:34.129Z,4.60
2019-03-13T23:05:05.993Z,5.23
2019-03-13T23:07:37.759Z,6.03
2019-03-13T23:10:25.123Z,4.00
2019-03-13T23:12:56.584Z,3.90
2019-03-13T23:15:28.233Z,7.17
2019-03-13T23:17:59.776Z,6.47
2019-03-13T23:20:31.335Z,5.00
2019-03-13T23:23:02.779Z,3.03
2019-03-13T23:25:34.403Z,7.67
2019-03-13T23:28:06.125Z,4.67
2019-03-13T23:30:37.641Z,5.57
2019-03-13T23:33:09.151Z,7.63
2019-03-13T23:35:40.662Z,3.43
2019-03-13T23:38:12.159Z,6.60
2019-03-13T23:40:43.612Z,3.73
2019-03-13T23:43:15.047Z,5.30
2019-03-13T23:45:46.496Z,4.83
2019-03-13T23:48:18.108Z,6.77
2019-03-13T23:50:49.663Z,4.30
2019-03-13T23:53:29.944Z,2.67
